Browns Valley, CA (95918)

8:19 AM PDT on August 31, 2015 (GMT -0700)
Daugherty Hill | | Change Station
CLOSE
Current Station
Personal Weather Station
Location: Browns Valley, CA
Elevation: 951 ft
Nearby Weather Stations

Elev 951 ft 39.32 °N, 121.34 °W | Updated 15 seconds ago

Clear
Clear
67.1 °F
Feels Like 67.1 °F
N
0.0
Wind Variable Wind from East
Gusts 0.0 mph

Today
High -- | Low -- °F
--% Chance of Precip.
Yesterday
High -- | Low -- °F
Precip. -- in
6:32 AM 7:37 PM
Waning Gibbous, 95% visible
Pressure 29.91 in
Visibility 10.0 miles
Clouds Clear
Dew Point 38 °F
Humidity 34%
Rainfall 0.00 in
Snow Depth Not available.
UV 1.0 out of 12
Pollen 8.20 out of 12
Air Quality Not available.
Flu Activity Not available.
METAR KBAB 311458Z AUTO 00000KT 10SM CLR 18/05 A2990 RMK AO2 SLP127 T01800050 52008 $
Pressure 29.91 in
Visibility 10.0 miles
Clouds Clear
Dew Point 38 °F
Humidity 34%
Rainfall 0.00 in
Snow Depth Not available.
UV 1.0 out of 12
Pollen 8.20 out of 12
Air Quality Not available.
Flu Activity Not available.
METAR KBAB 311458Z AUTO 00000KT 10SM CLR 18/05 A2990 RMK AO2 SLP127 T01800050 52008 $

10-Day Weather Forecast

×

Almanac

Astronomy

Aug. 31, 2015 Rise Set
Actual Time
Civil Twilight
Nautical Twilight
Astronomical Twilight
Moon
Length of Visible Light
Length of Day
Tomorrow will be .
, % of the Moon is Illuminated

Today's Extremes

State Highs State Lows

Community

WunderPhotos

Upload Photos

1,851,278 photos uploaded!

WunderBlogs® & News

Nearby

Air Quality

  Air Quality AQ Index Pollutant
Not available.

Snow Depth

Station Depth Elevation

Earthquake Activity

City Distance Mag. Time & Date
Minimum magnitude displayed is 2.5.

Coastal Water Temperatures

Place Temperature

Stations

Nearby Weather Stations

Station Location Temp. Windchill Dew Point Humidity Wind Precip. Elev Updated Type